sensor_id;sensor_type;location;lat;lon;timestamp;temperature;humidity
935;DHT22;454;53.254;10.400;2022-12-07T05:01:17;3.10;99.90
935;DHT22;454;53.254;10.400;2022-12-07T05:03:44;3.00;99.90
935;DHT22;454;53.254;10.400;2022-12-07T05:06:11;3.00;99.90
935;DHT22;454;53.254;10.400;2022-12-07T05:08:38;2.90;99.90
935;DHT22;454;53.254;10.400;2022-12-07T05:11:06;2.90;99.90
935;DHT22;454;53.254;10.400;2022-12-07T05:13:33;2.90;99.90
935;DHT22;454;53.254;10.400;2022-12-07T05:16:00;2.90;99.90
935;DHT22;454;53.254;10.400;2022-12-07T05:18:28;2.80;99.90
935;DHT22;454;53.254;10.400;2022-12-07T05:20:55;2.80;99.90
935;DHT22;454;53.254;10.400;2022-12-07T05:23:21;2.80;99.90
935;DHT22;454;53.254;10.400;2022-12-07T05:25:48;2.70;99.90
935;DHT22;454;53.254;10.400;2022-12-07T05:28:15;2.70;99.90
935;DHT22;454;53.254;10.400;2022-12-07T05:30:41;2.70;99.90
935;DHT22;454;53.254;10.400;2022-12-07T05:33:08;2.80;99.90
935;DHT22;454;53.254;10.400;2022-12-07T05:35:36;2.70;99.90
935;DHT22;454;53.254;10.400;2022-12-07T05:38:03;2.70;99.90
935;DHT22;454;53.254;10.400;2022-12-07T05:40:29;2.70;99.90
935;DHT22;454;53.254;10.400;2022-12-07T05:42:56;2.70;99.90
935;DHT22;454;53.254;10.400;2022-12-07T05:45:23;2.70;99.90
935;DHT22;454;53.254;10.400;2022-12-07T05:47:49;2.60;99.90
935;DHT22;454;53.254;10.400;2022-12-07T05:50:16;2.60;99.90
935;DHT22;454;53.254;10.400;2022-12-07T05:52:44;2.60;99.90
935;DHT22;454;53.254;10.400;2022-12-07T05:55:11;2.60;99.90
935;DHT22;454;53.254;10.400;2022-12-07T05:57:38;2.60;99.90
935;DHT22;454;53.254;10.400;2022-12-07T06:00:05;2.60;99.90
935;DHT22;454;53.254;10.400;2022-12-07T06:02:31;2.60;99.90
935;DHT22;454;53.254;10.400;2022-12-07T06:04:58;2.50;99.90
935;DHT22;454;53.254;10.400;2022-12-07T06:07:24;2.60;99.90
935;DHT22;454;53.254;10.400;2022-12-07T06:09:52;2.60;99.90
935;DHT22;454;53.254;10.400;2022-12-07T06:12:19;2.50;99.90
935;DHT22;454;53.254;10.400;2022-12-07T06:15:00;2.50;99.90
935;DHT22;454;53.254;10.400;2022-12-07T06:17:26;2.50;99.90
935;DHT22;454;53.254;10.400;2022-12-07T06:19:53;2.40;99.90
935;DHT22;454;53.254;10.400;2022-12-07T06:22:20;2.40;99.90
935;DHT22;454;53.254;10.400;2022-12-07T06:24:46;2.40;99.90
935;DHT22;454;53.254;10.400;2022-12-07T06:27:14;2.30;99.90
935;DHT22;454;53.254;10.400;2022-12-07T06:29:41;2.30;99.90
935;DHT22;454;53.254;10.400;2022-12-07T06:32:08;2.30;99.90
935;DHT22;454;53.254;10.400;2022-12-07T06:34:35;2.30;99.90
935;DHT22;454;53.254;10.400;2022-12-07T06:37:01;2.30;99.90
935;DHT22;454;53.254;10.400;2022-12-07T06:39:29;2.30;99.90
935;DHT22;454;53.254;10.400;2022-12-07T06:41:56;2.30;99.90
935;DHT22;454;53.254;10.400;2022-12-07T06:44:24;2.30;99.90
935;DHT22;454;53.254;10.400;2022-12-07T06:46:52;2.20;99.90
935;DHT22;454;53.254;10.400;2022-12-07T06:49:18;2.20;99.90
935;DHT22;454;53.254;10.400;2022-12-07T06:51:45;2.30;99.90
935;DHT22;454;53.254;10.400;2022-12-07T06:54:14;2.20;99.90
935;DHT22;454;53.254;10.400;2022-12-07T06:56:41;2.20;99.90
935;DHT22;454;53.254;10.400;2022-12-07T06:59:08;2.20;99.90
935;DHT22;454;53.254;10.400;2022-12-07T07:01:36;2.20;99.90
935;DHT22;454;53.254;10.400;2022-12-07T07:04:03;2.20;99.90
935;DHT22;454;53.254;10.400;2022-12-07T07:06:30;2.20;99.90
935;DHT22;454;53.254;10.400;2022-12-07T07:08:56;2.20;99.90
935;DHT22;454;53.254;10.400;2022-12-07T07:11:23;2.20;99.90
935;DHT22;454;53.254;10.400;2022-12-07T07:13:50;2.20;99.90
935;DHT22;454;53.254;10.400;2022-12-07T07:16:16;2.20;99.90
935;DHT22;454;53.254;10.400;2022-12-07T07:18:44;2.20;99.90
935;DHT22;454;53.254;10.400;2022-12-07T07:21:11;2.20;99.90
935;DHT22;454;53.254;10.400;2022-12-07T07:23:38;2.20;99.90
935;DHT22;454;53.254;10.400;2022-12-07T07:26:04;2.30;99.90
935;DHT22;454;53.254;10.400;2022-12-07T07:28:31;2.30;99.90
935;DHT22;454;53.254;10.400;2022-12-07T07:30:58;2.30;99.90
935;DHT22;454;53.254;10.400;2022-12-07T07:33:24;2.40;99.90
935;DHT22;454;53.254;10.400;2022-12-07T07:35:52;2.40;99.90
935;DHT22;454;53.254;10.400;2022-12-07T07:38:19;2.40;99.90
935;DHT22;454;53.254;10.400;2022-12-07T07:40:46;2.40;99.90
935;DHT22;454;53.254;10.400;2022-12-07T07:43:13;2.40;99.90
935;DHT22;454;53.254;10.400;2022-12-07T07:45:39;2.40;99.90
935;DHT22;454;53.254;10.400;2022-12-07T07:48:06;2.40;99.90
935;DHT22;454;53.254;10.400;2022-12-07T07:50:33;2.50;99.90
935;DHT22;454;53.254;10.400;2022-12-07T07:53:01;2.50;99.90
935;DHT22;454;53.254;10.400;2022-12-07T07:55:28;2.50;99.90
935;DHT22;454;53.254;10.400;2022-12-07T07:57:54;2.60;99.90
935;DHT22;454;53.254;10.400;2022-12-07T08:00:22;2.60;99.90
935;DHT22;454;53.254;10.400;2022-12-07T08:02:49;2.60;99.90
935;DHT22;454;53.254;10.400;2022-12-07T08:05:16;2.60;99.90
935;DHT22;454;53.254;10.400;2022-12-07T08:07:42;2.70;99.90
935;DHT22;454;53.254;10.400;2022-12-07T08:10:13;2.70;99.90
935;DHT22;454;53.254;10.400;2022-12-07T08:12:42;2.80;99.90
935;DHT22;454;53.254;10.400;2022-12-07T08:15:23;2.90;99.90
935;DHT22;454;53.254;10.400;2022-12-07T08:17:49;2.80;99.90
935;DHT22;454;53.254;10.400;2022-12-07T08:20:16;2.90;99.90
935;DHT22;454;53.254;10.400;2022-12-07T08:22:43;2.90;99.90
935;DHT22;454;53.254;10.400;2022-12-07T08:25:11;2.90;99.90
935;DHT22;454;53.254;10.400;2022-12-07T08:27:37;2.90;99.90
935;DHT22;454;53.254;10.400;2022-12-07T08:30:05;2.90;99.90
935;DHT22;454;53.254;10.400;2022-12-07T08:32:32;2.90;99.90
935;DHT22;454;53.254;10.400;2022-12-07T08:34:59;2.90;99.90
935;DHT22;454;53.254;10.400;2022-12-07T08:37:25;3.00;99.90
935;DHT22;454;53.254;10.400;2022-12-07T08:39:52;3.00;99.90
935;DHT22;454;53.254;10.400;2022-12-07T08:42:20;3.00;99.90
935;DHT22;454;53.254;10.400;2022-12-07T08:44:52;3.00;99.90
935;DHT22;454;53.254;10.400;2022-12-07T08:47:19;3.00;99.90
935;DHT22;454;53.254;10.400;2022-12-07T08:49:47;3.10;99.90
935;DHT22;454;53.254;10.400;2022-12-07T08:52:16;3.10;99.90
935;DHT22;454;53.254;10.400;2022-12-07T08:54:44;3.10;99.90
935;DHT22;454;53.254;10.400;2022-12-07T08:57:11;3.10;99.90
935;DHT22;454;53.254;10.400;2022-12-07T08:59:39;3.20;99.90
935;DHT22;454;53.254;10.400;2022-12-07T09:02:06;3.20;99.90
935;DHT22;454;53.254;10.400;2022-12-07T09:04:33;3.20;99.90
935;DHT22;454;53.254;10.400;2022-12-07T09:07:00;3.20;99.90
935;DHT22;454;53.254;10.400;2022-12-07T09:09:26;3.30;99.90
935;DHT22;454;53.254;10.400;2022-12-07T09:11:53;3.30;99.90
935;DHT22;454;53.254;10.400;2022-12-07T09:14:20;3.40;99.90
935;DHT22;454;53.254;10.400;2022-12-07T09:16:48;3.40;99.90
935;DHT22;454;53.254;10.400;2022-12-07T09:19:16;3.40;99.90
935;DHT22;454;53.254;10.400;2022-12-07T09:21:43;3.50;99.90
935;DHT22;454;53.254;10.400;2022-12-07T09:24:11;3.60;99.90
935;DHT22;454;53.254;10.400;2022-12-07T09:26:38;3.60;99.90
935;DHT22;454;53.254;10.400;2022-12-07T09:29:06;3.60;99.90
935;DHT22;454;53.254;10.400;2022-12-07T09:31:32;3.60;99.90
935;DHT22;454;53.254;10.400;2022-12-07T09:34:01;3.70;99.90
935;DHT22;454;53.254;10.400;2022-12-07T09:36:28;3.70;99.90
935;DHT22;454;53.254;10.400;2022-12-07T09:38:55;3.70;99.90
935;DHT22;454;53.254;10.400;2022-12-07T09:41:23;3.70;99.90
935;DHT22;454;53.254;10.400;2022-12-07T09:43:50;3.70;99.90
935;DHT22;454;53.254;10.400;2022-12-07T09:46:18;3.80;99.90
935;DHT22;454;53.254;10.400;2022-12-07T09:48:46;3.80;99.90
935;DHT22;454;53.254;10.400;2022-12-07T09:51:18;3.90;99.90
935;DHT22;454;53.254;10.400;2022-12-07T09:53:45;3.90;99.90
935;DHT22;454;53.254;10.400;2022-12-07T09:56:13;3.90;99.90
935;DHT22;454;53.254;10.400;2022-12-07T09:58:41;3.90;99.90
935;DHT22;454;53.254;10.400;2022-12-07T10:01:11;3.90;99.90
935;DHT22;454;53.254;10.400;2022-12-07T10:03:40;3.90;99.90
935;DHT22;454;53.254;10.400;2022-12-07T10:06:11;3.90;99.90
935;DHT22;454;53.254;10.400;2022-12-07T10:08:40;4.00;99.90
935;DHT22;454;53.254;10.400;2022-12-07T10:11:09;4.00;99.90
935;DHT22;454;53.254;10.400;2022-12-07T10:13:37;4.00;99.90
935;DHT22;454;53.254;10.400;2022-12-07T10:16:06;4.10;99.90
935;DHT22;454;53.254;10.400;2022-12-07T10:18:34;4.10;99.90
935;DHT22;454;53.254;10.400;2022-12-07T10:21:05;4.10;99.90
935;DHT22;454;53.254;10.400;2022-12-07T10:23:36;4.20;99.90
935;DHT22;454;53.254;10.400;2022-12-07T10:26:26;4.30;99.90
935;DHT22;454;53.254;10.400;2022-12-07T10:28:54;4.30;99.90
935;DHT22;454;53.254;10.400;2022-12-07T10:31:22;4.30;99.90
935;DHT22;454;53.254;10.400;2022-12-07T10:33:51;4.40;99.90
935;DHT22;454;53.254;10.400;2022-12-07T10:36:22;4.40;99.90
935;DHT22;454;53.254;10.400;2022-12-07T10:38:51;4.40;99.90
935;DHT22;454;53.254;10.400;2022-12-07T10:41:18;4.40;99.90
935;DHT22;454;53.254;10.400;2022-12-07T10:43:49;4.40;99.90
935;DHT22;454;53.254;10.400;2022-12-07T10:46:37;4.40;99.90
935;DHT22;454;53.254;10.400;2022-12-07T10:49:21;4.40;99.90
935;DHT22;454;53.254;10.400;2022-12-07T10:51:59;4.50;99.90
935;DHT22;454;53.254;10.400;2022-12-07T10:54:37;4.50;99.90
935;DHT22;454;53.254;10.400;2022-12-07T10:57:19;4.60;99.90
935;DHT22;454;53.254;10.400;2022-12-07T11:00:02;4.60;99.90
935;DHT22;454;53.254;10.400;2022-12-07T11:02:58;4.70;99.90
935;DHT22;454;53.254;10.400;2022-12-07T11:05:33;4.70;99.90
935;DHT22;454;53.254;10.400;2022-12-07T11:08:13;4.70;99.90
935;DHT22;454;53.254;10.400;2022-12-07T11:10:46;4.80;99.90
935;DHT22;454;53.254;10.400;2022-12-07T11:13:26;4.80;99.90
935;DHT22;454;53.254;10.400;2022-12-07T11:16:16;4.80;99.90
935;DHT22;454;53.254;10.400;2022-12-07T11:18:54;4.90;99.90
935;DHT22;454;53.254;10.400;2022-12-07T11:21:29;4.90;99.90
935;DHT22;454;53.254;10.400;2022-12-07T11:24:01;4.90;99.90
935;DHT22;454;53.254;10.400;2022-12-07T11:26:40;4.80;99.90
935;DHT22;454;53.254;10.400;2022-12-07T11:29:28;4.70;99.90
935;DHT22;454;53.254;10.400;2022-12-07T11:32:07;4.70;99.90
935;DHT22;454;53.254;10.400;2022-12-07T11:34:42;4.70;99.90
935;DHT22;454;53.254;10.400;2022-12-07T11:37:18;4.70;99.90
935;DHT22;454;53.254;10.400;2022-12-07T11:39:49;4.70;99.90
935;DHT22;454;53.254;10.400;2022-12-07T11:42:21;4.70;99.90
935;DHT22;454;53.254;10.400;2022-12-07T11:44:52;5.10;99.90
935;DHT22;454;53.254;10.400;2022-12-07T11:47:27;4.80;99.90
935;DHT22;454;53.254;10.400;2022-12-07T11:50:03;4.80;99.90
935;DHT22;454;53.254;10.400;2022-12-07T11:52:42;4.80;99.90
935;DHT22;454;53.254;10.400;2022-12-07T11:55:18;4.70;99.90
935;DHT22;454;53.254;10.400;2022-12-07T11:57:50;4.70;99.90
935;DHT22;454;53.254;10.400;2022-12-07T12:00:19;5.00;99.90
935;DHT22;454;53.254;10.400;2022-12-07T12:02:51;4.70;99.90
935;DHT22;454;53.254;10.400;2022-12-07T12:05:22;4.80;99.90
935;DHT22;454;53.254;10.400;2022-12-07T12:07:59;4.80;99.90
935;DHT22;454;53.254;10.400;2022-12-07T12:10:37;4.70;99.90
935;DHT22;454;53.254;10.400;2022-12-07T12:13:21;4.70;99.90
935;DHT22;454;53.254;10.400;2022-12-07T12:16:06;4.70;99.90
935;DHT22;454;53.254;10.400;2022-12-07T12:21:28;4.70;99.90
935;DHT22;454;53.254;10.400;2022-12-07T12:23:59;4.60;99.90
935;DHT22;454;53.254;10.400;2022-12-07T12:26:29;4.60;99.90
935;DHT22;454;53.254;10.400;2022-12-07T12:28:58;4.60;99.90
935;DHT22;454;53.254;10.400;2022-12-07T12:31:35;4.60;99.90
935;DHT22;454;53.254;10.400;2022-12-07T12:36:55;4.60;99.90
935;DHT22;454;53.254;10.400;2022-12-07T12:39:21;4.60;99.90
935;DHT22;454;53.254;10.400;2022-12-07T12:41:56;4.60;99.90
935;DHT22;454;53.254;10.400;2022-12-07T12:47:51;4.60;99.90
935;DHT22;454;53.254;10.400;2022-12-07T12:50:22;4.60;99.90
935;DHT22;454;53.254;10.400;2022-12-07T12:52:56;4.70;99.90
935;DHT22;454;53.254;10.400;2022-12-07T12:56:02;4.70;99.90
935;DHT22;454;53.254;10.400;2022-12-07T12:58:43;4.70;99.90
935;DHT22;454;53.254;10.400;2022-12-07T13:01:44;4.70;99.90
935;DHT22;454;53.254;10.400;2022-12-07T13:04:38;4.70;99.90
935;DHT22;454;53.254;10.400;2022-12-07T13:07:12;4.70;99.90
935;DHT22;454;53.254;10.400;2022-12-07T13:09:43;4.70;99.90
935;DHT22;454;53.254;10.400;2022-12-07T13:12:16;4.70;99.90
935;DHT22;454;53.254;10.400;2022-12-07T13:14:57;4.70;99.90
935;DHT22;454;53.254;10.400;2022-12-07T13:17:58;4.60;99.90
935;DHT22;454;53.254;10.400;2022-12-07T13:20:50;4.60;99.90
935;DHT22;454;53.254;10.400;2022-12-07T13:23:22;4.50;99.90
935;DHT22;454;53.254;10.400;2022-12-07T13:26:06;4.50;99.90
935;DHT22;454;53.254;10.400;2022-12-07T13:28:38;4.50;99.90
935;DHT22;454;53.254;10.400;2022-12-07T13:31:25;4.50;99.90
935;DHT22;454;53.254;10.400;2022-12-07T13:33:57;4.40;99.90
935;DHT22;454;53.254;10.400;2022-12-07T13:36:25;4.50;99.90
935;DHT22;454;53.254;10.400;2022-12-07T13:38:56;4.50;99.90
935;DHT22;454;53.254;10.400;2022-12-07T13:41:24;4.50;99.90
935;DHT22;454;53.254;10.400;2022-12-07T13:44:01;4.60;99.90
935;DHT22;454;53.254;10.400;2022-12-07T13:46:35;4.60;99.90
935;DHT22;454;53.254;10.400;2022-12-07T13:49:20;4.50;99.90
935;DHT22;454;53.254;10.400;2022-12-07T13:51:48;4.40;99.90
935;DHT22;454;53.254;10.400;2022-12-07T13:54:17;4.40;99.90
935;DHT22;454;53.254;10.400;2022-12-07T13:56:47;4.40;99.90
935;DHT22;454;53.254;10.400;2022-12-07T13:59:17;4.30;99.90
935;DHT22;454;53.254;10.400;2022-12-07T14:01:45;4.30;99.90
935;DHT22;454;53.254;10.400;2022-12-07T14:04:28;4.30;99.90
935;DHT22;454;53.254;10.400;2022-12-07T14:06:56;4.30;99.90
935;DHT22;454;53.254;10.400;2022-12-07T14:09:26;4.20;99.90
935;DHT22;454;53.254;10.400;2022-12-07T14:11:54;4.20;99.90
935;DHT22;454;53.254;10.400;2022-12-07T14:14:24;4.20;99.90
935;DHT22;454;53.254;10.400;2022-12-07T14:17:00;4.20;99.90
935;DHT22;454;53.254;10.400;2022-12-07T14:19:45;4.10;99.90
935;DHT22;454;53.254;10.400;2022-12-07T14:22:25;4.10;99.90
935;DHT22;454;53.254;10.400;2022-12-07T14:25:00;4.00;99.90
935;DHT22;454;53.254;10.400;2022-12-07T14:27:31;4.00;99.90
935;DHT22;454;53.254;10.400;2022-12-07T14:29:59;4.00;99.90
935;DHT22;454;53.254;10.400;2022-12-07T14:32:28;3.90;99.90
935;DHT22;454;53.254;10.400;2022-12-07T14:34:58;3.90;99.90
935;DHT22;454;53.254;10.400;2022-12-07T14:37:26;3.80;99.90
935;DHT22;454;53.254;10.400;2022-12-07T14:39:53;3.80;99.90
935;DHT22;454;53.254;10.400;2022-12-07T14:42:24;3.70;99.90
935;DHT22;454;53.254;10.400;2022-12-07T14:44:52;3.80;99.90
935;DHT22;454;53.254;10.400;2022-12-07T14:47:19;3.70;99.90
935;DHT22;454;53.254;10.400;2022-12-07T14:49:46;3.70;99.90
935;DHT22;454;53.254;10.400;2022-12-07T14:52:16;3.70;99.90
935;DHT22;454;53.254;10.400;2022-12-07T14:54:43;3.70;99.90
935;DHT22;454;53.254;10.400;2022-12-07T14:57:10;3.70;99.90
935;DHT22;454;53.254;10.400;2022-12-07T14:59:38;3.60;99.90
935;DHT22;454;53.254;10.400;2022-12-07T15:02:06;3.60;99.90
935;DHT22;454;53.254;10.400;2022-12-07T15:04:32;3.60;99.90
935;DHT22;454;53.254;10.400;2022-12-07T15:07:01;3.60;99.90
935;DHT22;454;53.254;10.400;2022-12-07T15:09:29;3.60;99.90
935;DHT22;454;53.254;10.400;2022-12-07T15:11:55;3.60;99.90
935;DHT22;454;53.254;10.400;2022-12-07T15:14:22;3.50;99.90
935;DHT22;454;53.254;10.400;2022-12-07T15:16:50;3.50;99.90
935;DHT22;454;53.254;10.400;2022-12-07T15:19:18;3.40;99.90
935;DHT22;454;53.254;10.400;2022-12-07T15:21:48;3.40;99.90
935;DHT22;454;53.254;10.400;2022-12-07T15:24:15;3.30;99.90
935;DHT22;454;53.254;10.400;2022-12-07T15:26:42;3.30;99.90
935;DHT22;454;53.254;10.400;2022-12-07T15:29:09;3.20;99.90
935;DHT22;454;53.254;10.400;2022-12-07T15:31:36;3.20;99.90
935;DHT22;454;53.254;10.400;2022-12-07T15:34:04;3.20;99.90
935;DHT22;454;53.254;10.400;2022-12-07T15:36:33;3.10;99.90
935;DHT22;454;53.254;10.400;2022-12-07T15:39:00;3.10;99.90
935;DHT22;454;53.254;10.400;2022-12-07T15:41:27;3.00;99.90
935;DHT22;454;53.254;10.400;2022-12-07T15:43:53;3.00;99.90
935;DHT22;454;53.254;10.400;2022-12-07T15:46:39;3.00;99.90
935;DHT22;454;53.254;10.400;2022-12-07T15:49:10;3.00;99.90
935;DHT22;454;53.254;10.400;2022-12-07T15:51:37;2.90;99.90
935;DHT22;454;53.254;10.400;2022-12-07T15:54:04;2.90;99.90
935;DHT22;454;53.254;10.400;2022-12-07T15:56:31;2.90;99.90
935;DHT22;454;53.254;10.400;2022-12-07T15:58:57;2.90;99.90
935;DHT22;454;53.254;10.400;2022-12-07T16:01:24;2.90;99.90
935;DHT22;454;53.254;10.400;2022-12-07T16:03:51;2.90;99.90
935;DHT22;454;53.254;10.400;2022-12-07T16:06:19;2.90;99.90
935;DHT22;454;53.254;10.400;2022-12-07T16:08:46;2.90;99.90
935;DHT22;454;53.254;10.400;2022-12-07T16:11:13;2.90;99.90
935;DHT22;454;53.254;10.400;2022-12-07T16:13:40;2.90;99.90
935;DHT22;454;53.254;10.400;2022-12-07T16:16:09;2.90;99.90
935;DHT22;454;53.254;10.400;2022-12-07T16:18:36;2.80;99.90
935;DHT22;454;53.254;10.400;2022-12-07T16:21:03;2.80;99.90
935;DHT22;454;53.254;10.400;2022-12-07T16:23:32;2.70;99.90
935;DHT22;454;53.254;10.400;2022-12-07T16:26:04;2.70;99.90
935;DHT22;454;53.254;10.400;2022-12-07T16:28:31;2.70;99.90
935;DHT22;454;53.254;10.400;2022-12-07T16:31:03;2.70;99.90
935;DHT22;454;53.254;10.400;2022-12-07T16:33:30;2.60;99.90
935;DHT22;454;53.254;10.400;2022-12-07T16:35:58;2.60;99.90
935;DHT22;454;53.254;10.400;2022-12-07T16:38:25;2.60;99.90
935;DHT22;454;53.254;10.400;2022-12-07T16:40:53;2.50;99.90
935;DHT22;454;53.254;10.400;2022-12-07T16:43:20;2.50;99.90
935;DHT22;454;53.254;10.400;2022-12-07T16:45:47;2.40;99.90
935;DHT22;454;53.254;10.400;2022-12-07T16:48:14;2.40;99.90
935;DHT22;454;53.254;10.400;2022-12-07T16:50:42;2.40;99.90
935;DHT22;454;53.254;10.400;2022-12-07T16:53:09;2.40;99.90
935;DHT22;454;53.254;10.400;2022-12-07T16:55:37;2.40;99.90
935;DHT22;454;53.254;10.400;2022-12-07T16:58:05;2.40;99.90
935;DHT22;454;53.254;10.400;2022-12-07T17:00:33;2.30;99.90
935;DHT22;454;53.254;10.400;2022-12-07T17:03:00;2.30;99.90
935;DHT22;454;53.254;10.400;2022-12-07T17:05:27;2.30;99.90
935;DHT22;454;53.254;10.400;2022-12-07T17:07:55;2.30;99.90
935;DHT22;454;53.254;10.400;2022-12-07T17:10:22;2.20;99.90
935;DHT22;454;53.254;10.400;2022-12-07T17:12:49;2.20;99.90
935;DHT22;454;53.254;10.400;2022-12-07T17:15:18;2.20;99.90
935;DHT22;454;53.254;10.400;2022-12-07T17:17:47;2.10;99.90
935;DHT22;454;53.254;10.400;2022-12-07T17:20:18;2.20;99.90
935;DHT22;454;53.254;10.400;2022-12-07T17:22:45;2.10;99.90
935;DHT22;454;53.254;10.400;2022-12-07T17:25:12;2.10;99.90
935;DHT22;454;53.254;10.400;2022-12-07T17:27:39;2.10;99.90
935;DHT22;454;53.254;10.400;2022-12-07T17:30:07;2.10;99.90
935;DHT22;454;53.254;10.400;2022-12-07T17:32:35;2.00;99.90
935;DHT22;454;53.254;10.400;2022-12-07T17:35:02;2.10;99.90
935;DHT22;454;53.254;10.400;2022-12-07T17:37:30;2.00;99.90
935;DHT22;454;53.254;10.400;2022-12-07T17:39:57;2.00;99.90
935;DHT22;454;53.254;10.400;2022-12-07T17:42:24;2.00;99.90
935;DHT22;454;53.254;10.400;2022-12-07T17:45:06;2.00;99.90
935;DHT22;454;53.254;10.400;2022-12-07T17:47:33;1.90;99.90
935;DHT22;454;53.254;10.400;2022-12-07T17:50:02;2.00;99.90
935;DHT22;454;53.254;10.400;2022-12-07T17:52:29;2.00;99.90
935;DHT22;454;53.254;10.400;2022-12-07T17:55:13;2.00;99.90
935;DHT22;454;53.254;10.400;2022-12-07T17:57:40;2.00;99.90
935;DHT22;454;53.254;10.400;2022-12-07T18:00:07;2.00;99.90
935;DHT22;454;53.254;10.400;2022-12-07T18:02:35;1.90;99.90
935;DHT22;454;53.254;10.400;2022-12-07T18:05:04;1.90;99.90
935;DHT22;454;53.254;10.400;2022-12-07T18:07:31;1.90;99.90
935;DHT22;454;53.254;10.400;2022-12-07T18:09:58;1.90;99.90
935;DHT22;454;53.254;10.400;2022-12-07T18:12:24;1.90;99.90
935;DHT22;454;53.254;10.400;2022-12-07T18:14:51;1.90;99.90
935;DHT22;454;53.254;10.400;2022-12-07T18:17:18;1.90;99.90
935;DHT22;454;53.254;10.400;2022-12-07T18:19:45;1.90;99.90
935;DHT22;454;53.254;10.400;2022-12-07T18:22:13;1.90;99.90
935;DHT22;454;53.254;10.400;2022-12-07T18:24:41;1.90;99.90
935;DHT22;454;53.254;10.400;2022-12-07T18:27:08;1.90;99.90
935;DHT22;454;53.254;10.400;2022-12-07T18:29:34;1.80;99.90
935;DHT22;454;53.254;10.400;2022-12-07T18:32:01;1.80;99.90
935;DHT22;454;53.254;10.400;2022-12-07T18:34:29;1.80;99.90
935;DHT22;454;53.254;10.400;2022-12-07T18:36:56;1.80;99.90
935;DHT22;454;53.254;10.400;2022-12-07T18:39:24;1.70;99.90
935;DHT22;454;53.254;10.400;2022-12-07T18:41:51;1.70;99.90
935;DHT22;454;53.254;10.400;2022-12-07T18:44:18;1.70;99.90
935;DHT22;454;53.254;10.400;2022-12-07T18:46:44;1.70;99.90
935;DHT22;454;53.254;10.400;2022-12-07T18:49:11;1.70;99.90
935;DHT22;454;53.254;10.400;2022-12-07T18:51:38;1.70;99.90
935;DHT22;454;53.254;10.400;2022-12-07T18:54:05;1.70;99.90
935;DHT22;454;53.254;10.400;2022-12-07T18:56:33;1.60;99.90
935;DHT22;454;53.254;10.400;2022-12-07T18:59:01;1.60;99.90
935;DHT22;454;53.254;10.400;2022-12-07T19:01:48;1.60;99.90
935;DHT22;454;53.254;10.400;2022-12-07T19:04:16;1.60;99.90
935;DHT22;454;53.254;10.400;2022-12-07T19:06:44;1.60;99.90
935;DHT22;454;53.254;10.400;2022-12-07T19:09:11;1.60;99.90
935;DHT22;454;53.254;10.400;2022-12-07T19:11:40;1.50;99.90
935;DHT22;454;53.254;10.400;2022-12-07T19:14:19;1.50;99.90
935;DHT22;454;53.254;10.400;2022-12-07T19:16:48;1.50;99.90
935;DHT22;454;53.254;10.400;2022-12-07T19:19:16;1.50;99.90
935;DHT22;454;53.254;10.400;2022-12-07T19:21:43;1.40;99.90
935;DHT22;454;53.254;10.400;2022-12-07T19:24:10;1.40;99.90
935;DHT22;454;53.254;10.400;2022-12-07T19:26:37;1.40;99.90
935;DHT22;454;53.254;10.400;2022-12-07T19:29:06;1.40;99.90
935;DHT22;454;53.254;10.400;2022-12-07T19:31:32;1.30;99.90
935;DHT22;454;53.254;10.400;2022-12-07T19:34:00;1.30;99.90
935;DHT22;454;53.254;10.400;2022-12-07T19:36:27;1.30;99.90
935;DHT22;454;53.254;10.400;2022-12-07T19:38:54;1.30;99.90
935;DHT22;454;53.254;10.400;2022-12-07T19:41:21;1.30;99.90
935;DHT22;454;53.254;10.400;2022-12-07T19:44:01;1.20;99.90
935;DHT22;454;53.254;10.400;2022-12-07T19:46:30;1.20;99.90
935;DHT22;454;53.254;10.400;2022-12-07T19:48:56;1.20;99.90
935;DHT22;454;53.254;10.400;2022-12-07T19:51:25;1.20;99.90
935;DHT22;454;53.254;10.400;2022-12-07T19:53:52;1.20;99.90
935;DHT22;454;53.254;10.400;2022-12-07T19:56:21;1.20;99.90
935;DHT22;454;53.254;10.400;2022-12-07T19:58:48;1.20;99.90
935;DHT22;454;53.254;10.400;2022-12-07T20:01:15;1.20;99.90
935;DHT22;454;53.254;10.400;2022-12-07T20:03:43;1.20;99.90
935;DHT22;454;53.254;10.400;2022-12-07T20:06:12;1.20;99.90
935;DHT22;454;53.254;10.400;2022-12-07T20:08:40;1.20;99.90
935;DHT22;454;53.254;10.400;2022-12-07T20:11:07;1.20;99.90
935;DHT22;454;53.254;10.400;2022-12-07T20:13:48;1.30;99.90
935;DHT22;454;53.254;10.400;2022-12-07T20:16:14;1.30;99.90
935;DHT22;454;53.254;10.400;2022-12-07T20:18:43;1.30;99.90
935;DHT22;454;53.254;10.400;2022-12-07T20:21:09;1.30;99.90
935;DHT22;454;53.254;10.400;2022-12-07T20:23:36;1.30;99.90
935;DHT22;454;53.254;10.400;2022-12-07T20:26:05;1.40;99.90
935;DHT22;454;53.254;10.400;2022-12-07T20:28:32;1.40;99.90
935;DHT22;454;53.254;10.400;2022-12-07T20:30:59;1.40;99.90
935;DHT22;454;53.254;10.400;2022-12-07T20:33:26;1.40;99.90
935;DHT22;454;53.254;10.400;2022-12-07T20:35:59;1.40;99.90
935;DHT22;454;53.254;10.400;2022-12-07T20:38:26;1.40;99.90
935;DHT22;454;53.254;10.400;2022-12-07T20:40:57;1.40;99.90
935;DHT22;454;53.254;10.400;2022-12-07T20:43:24;1.40;99.90
935;DHT22;454;53.254;10.400;2022-12-07T20:45:50;1.40;99.90
935;DHT22;454;53.254;10.400;2022-12-07T20:48:17;1.40;99.90
935;DHT22;454;53.254;10.400;2022-12-07T20:50:44;1.40;99.90
935;DHT22;454;53.254;10.400;2022-12-07T20:53:12;1.50;99.90
935;DHT22;454;53.254;10.400;2022-12-07T20:55:38;1.50;99.90
935;DHT22;454;53.254;10.400;2022-12-07T20:58:05;1.50;99.90
935;DHT22;454;53.254;10.400;2022-12-07T21:00:33;1.50;99.90
935;DHT22;454;53.254;10.400;2022-12-07T21:03:00;1.50;99.90
935;DHT22;454;53.254;10.400;2022-12-07T21:05:27;1.50;99.90
935;DHT22;454;53.254;10.400;2022-12-07T21:07:54;1.50;99.90
935;DHT22;454;53.254;10.400;2022-12-07T21:10:22;1.50;99.90
935;DHT22;454;53.254;10.400;2022-12-07T21:12:48;1.50;99.90
935;DHT22;454;53.254;10.400;2022-12-07T21:15:15;1.50;99.90
935;DHT22;454;53.254;10.400;2022-12-07T21:17:42;1.50;99.90
935;DHT22;454;53.254;10.400;2022-12-07T21:20:09;1.50;99.90
935;DHT22;454;53.254;10.400;2022-12-07T21:22:36;1.50;99.90
935;DHT22;454;53.254;10.400;2022-12-07T21:25:03;1.50;99.90
935;DHT22;454;53.254;10.400;2022-12-07T21:27:32;1.50;99.90
935;DHT22;454;53.254;10.400;2022-12-07T21:29:59;1.50;99.90
935;DHT22;454;53.254;10.400;2022-12-07T21:32:26;1.50;99.90
935;DHT22;454;53.254;10.400;2022-12-07T21:34:52;1.60;99.90
935;DHT22;454;53.254;10.400;2022-12-07T21:37:19;1.60;99.90
935;DHT22;454;53.254;10.400;2022-12-07T21:39:46;1.70;99.90
935;DHT22;454;53.254;10.400;2022-12-07T21:42:12;1.70;99.90
935;DHT22;454;53.254;10.400;2022-12-07T21:44:40;1.70;99.90
935;DHT22;454;53.254;10.400;2022-12-07T21:47:07;1.70;99.90
935;DHT22;454;53.254;10.400;2022-12-07T21:49:34;1.80;99.90
935;DHT22;454;53.254;10.400;2022-12-07T21:52:01;1.80;99.90
935;DHT22;454;53.254;10.400;2022-12-07T21:54:27;1.80;99.90
935;DHT22;454;53.254;10.400;2022-12-07T21:56:54;1.80;99.90
935;DHT22;454;53.254;10.400;2022-12-07T21:59:21;1.90;99.90
